Time;durP1;ratioP1;P1;durP2;ratioP2;P2;SDS_P1;SDS_P2;PMS_P1;PMS_P2;Temp;Humidity;BMP_temperature;BMP_pressure;BME280_temperature;BME280_humidity;BME280_pressure;Samples;Min_cycle;Max_cycle;Signal;HPM_P1;HPM_P2
2023/06/07 00:02:11;;;;;;;10.90;8.40;;;;;;;16.49;75.92;98596.38;105125;1267;97917;-68
2023/06/07 00:04:45;;;;;;;9.40;7.90;;;;;;;16.44;76.28;98597.92;105256;1258;99157;-77
2023/06/07 00:07:12;;;;;;;12.60;8.00;;;;;;;16.38;76.80;98601.46;105065;1258;112391;-77
2023/06/07 00:09:39;;;;;;;11.10;8.90;;;;;;;16.28;77.59;98600.02;105142;1257;98811;-77
2023/06/07 00:12:07;;;;;;;10.90;8.90;;;;;;;16.22;77.42;98603.73;105161;1257;97872;-66
2023/06/07 00:14:34;;;;;;;12.00;8.60;;;;;;;16.17;77.69;98601.16;105298;1257;98846;-66
2023/06/07 00:17:02;;;;;;;12.00;8.40;;;;;;;16.13;78.06;98599.21;105219;1254;97905;-76
2023/06/07 00:19:29;;;;;;;12.40;8.40;;;;;;;16.07;78.51;98598.36;105076;1267;111661;-69
2023/06/07 00:21:57;;;;;;;11.30;8.40;;;;;;;16.02;78.86;98597.19;105047;1261;97994;-66
2023/06/07 00:24:24;;;;;;;12.50;8.80;;;;;;;16.00;79.14;98594.30;105084;1266;107511;-74
2023/06/07 00:26:51;;;;;;;11.40;8.50;;;;;;;15.97;79.26;98598.23;105081;1257;98347;-76
2023/06/07 00:29:19;;;;;;;12.10;9.20;;;;;;;15.94;79.90;98595.45;105091;1257;97944;-70
2023/06/07 00:31:46;;;;;;;13.70;8.70;;;;;;;15.92;80.09;98599.50;105233;1257;99202;-75
2023/06/07 00:34:13;;;;;;;12.20;8.80;;;;;;;15.90;80.43;98599.29;105180;1254;97957;-66
2023/06/07 00:36:41;;;;;;;12.20;9.00;;;;;;;15.89;80.40;98598.00;105142;1256;99199;-74
2023/06/07 00:39:08;;;;;;;10.90;8.70;;;;;;;15.89;80.96;98600.18;105230;1254;97877;-76
2023/06/07 00:41:35;;;;;;;9.90;8.50;;;;;;;15.87;81.40;98594.86;105191;1257;98804;-77
2023/06/07 00:44:02;;;;;;;11.90;9.00;;;;;;;15.85;81.50;98595.51;105051;1254;98820;-67
2023/06/07 00:46:30;;;;;;;10.50;8.60;;;;;;;15.82;81.63;98594.56;105102;1259;98743;-78
2023/06/07 00:48:58;;;;;;;12.50;9.10;;;;;;;15.77;82.33;98593.55;105102;1257;99186;-75
2023/06/07 00:51:30;;;;;;;13.10;9.40;;;;;;;15.74;82.16;98594.73;105053;1256;97937;-68
2023/06/07 00:54:05;;;;;;;12.10;9.60;;;;;;;15.76;82.37;98596.81;105166;1254;98998;-74
2023/06/07 00:56:32;;;;;;;11.40;9.40;;;;;;;15.80;82.64;98593.64;105034;1273;112150;-75
2023/06/07 00:58:59;;;;;;;10.80;8.60;;;;;;;15.83;83.65;98594.17;104975;1260;97979;-73
2023/06/07 01:01:27;;;;;;;10.80;9.00;;;;;;;15.83;83.30;98592.21;105007;1257;97918;-74
2023/06/07 01:03:56;;;;;;;12.80;9.20;;;;;;;15.84;83.57;98590.73;105057;1254;97982;-74
2023/06/07 01:06:24;;;;;;;11.60;8.70;;;;;;;15.85;83.37;98591.57;105011;1267;98472;-74
2023/06/07 01:08:51;;;;;;;11.50;9.30;;;;;;;15.90;83.23;98591.46;104998;1268;112232;-74
2023/06/07 01:11:21;;;;;;;12.20;9.50;;;;;;;15.91;83.12;98589.35;105093;1257;99453;-75
2023/06/07 01:13:49;;;;;;;12.50;9.00;;;;;;;15.92;83.16;98589.79;105053;1255;108381;-74
2023/06/07 01:16:16;;;;;;;11.00;9.30;;;;;;;15.92;83.46;98591.42;105058;1257;97893;-67
2023/06/07 01:18:45;;;;;;;10.40;8.70;;;;;;;15.90;83.60;98588.61;105127;1254;97819;-69
2023/06/07 01:21:18;;;;;;;13.30;9.00;;;;;;;15.89;83.89;98590.08;105170;1257;112276;-74
2023/06/07 01:23:45;;;;;;;12.10;9.60;;;;;;;15.84;83.86;98587.88;105142;1266;98352;-73
2023/06/07 01:26:13;;;;;;;15.50;9.80;;;;;;;15.80;84.32;98588.27;105003;1256;98017;-68
2023/06/07 01:28:42;;;;;;;12.20;9.90;;;;;;;15.74;84.65;98591.00;105123;1256;99195;-69
2023/06/07 01:31:10;;;;;;;14.70;10.60;;;;;;;15.67;84.85;98586.14;105245;1266;98335;-70
2023/06/07 01:33:38;;;;;;;14.20;9.90;;;;;;;15.63;84.82;98587.37;105106;1272;112145;-69
2023/06/07 01:36:07;;;;;;;12.00;9.70;;;;;;;15.62;85.07;98583.79;105229;1270;97975;-68
2023/06/07 01:38:36;;;;;;;12.50;9.50;;;;;;;15.59;85.11;98582.07;105240;1257;106729;-68
2023/06/07 01:41:03;;;;;;;12.10;9.40;;;;;;;15.59;85.24;98583.92;105217;1268;98033;-71
2023/06/07 01:43:31;;;;;;;12.30;9.30;;;;;;;15.60;84.94;98585.34;105190;1272;99082;-69
2023/06/07 01:45:59;;;;;;;13.20;9.20;;;;;;;15.64;85.32;98584.83;105115;1257;112247;-73
2023/06/07 01:48:26;;;;;;;12.50;9.70;;;;;;;15.64;85.50;98585.38;105031;1268;97893;-72
2023/06/07 01:50:53;;;;;;;11.50;9.60;;;;;;;15.63;85.66;98583.67;105048;1270;97975;-76
2023/06/07 01:53:20;;;;;;;11.10;9.90;;;;;;;15.60;86.40;98582.09;105180;1257;97950;-77
2023/06/07 01:56:03;;;;;;;12.20;9.40;;;;;;;15.59;86.54;98578.63;105048;1257;99212;-77
2023/06/07 01:59:00;;;;;;;14.50;10.20;;;;;;;15.59;86.75;98577.95;105000;1257;111399;-76
2023/06/07 02:01:55;;;;;;;12.70;10.10;;;;;;;15.50;87.31;98576.73;105029;1254;99140;-76
2023/06/07 02:04:27;;;;;;;12.20;10.20;;;;;;;15.46;87.21;98579.94;105195;1267;107634;-68
2023/06/07 02:06:59;;;;;;;13.40;10.40;;;;;;;15.45;87.48;98577.23;105174;1270;97880;-76
2023/06/07 02:09:28;;;;;;;14.30;10.50;;;;;;;15.45;87.29;98574.70;105179;1257;99206;-70
2023/06/07 02:11:55;;;;;;;15.60;11.10;;;;;;;15.44;87.84;98573.26;105232;1257;111156;-69
2023/06/07 02:14:23;;;;;;;15.50;11.20;;;;;;;15.40;87.98;98567.00;105200;1254;99489;-72
2023/06/07 02:16:50;;;;;;;14.80;10.50;;;;;;;15.40;87.88;98569.83;105101;1256;99192;-75
2023/06/07 02:19:17;;;;;;;12.00;10.70;;;;;;;15.42;87.79;98570.74;104965;1258;97992;-71
2023/06/07 02:21:44;;;;;;;15.80;10.90;;;;;;;15.41;88.13;98571.21;104928;1256;99163;-75
2023/06/07 02:24:11;;;;;;;14.40;11.10;;;;;;;15.40;88.08;98573.52;105121;1258;98512;-69
2023/06/07 02:26:39;;;;;;;13.00;10.60;;;;;;;15.38;88.18;98573.65;105201;1257;97810;-74
2023/06/07 02:29:06;;;;;;;11.50;10.30;;;;;;;15.38;88.29;98575.84;105195;1256;97927;-75
2023/06/07 02:31:33;;;;;;;15.50;11.70;;;;;;;15.37;88.47;98575.73;105243;1270;97976;-70
2023/06/07 02:34:00;;;;;;;13.40;11.20;;;;;;;15.37;88.40;98575.02;105197;1257;99199;-70
2023/06/07 02:36:33;;;;;;;14.40;11.10;;;;;;;15.38;88.39;98576.00;105240;1267;97873;-75
2023/06/07 02:39:00;;;;;;;13.70;11.20;;;;;;;15.41;88.22;98575.86;105201;1267;98345;-74
2023/06/07 02:41:27;;;;;;;14.00;10.60;;;;;;;15.45;88.23;98568.95;105230;1256;98099;-72
2023/06/07 02:43:54;;;;;;;11.70;10.40;;;;;;;15.53;88.16;98572.09;105191;1257;97909;-75
2023/06/07 02:46:21;;;;;;;13.00;10.80;;;;;;;15.57;87.50;98570.40;105192;1257;98012;-75
2023/06/07 02:48:48;;;;;;;12.70;10.70;;;;;;;15.59;87.52;98574.56;105188;1257;99211;-75
2023/06/07 02:51:15;;;;;;;12.50;10.70;;;;;;;15.55;87.44;98571.52;105128;1254;99237;-72
2023/06/07 02:53:44;;;;;;;14.00;11.20;;;;;;;15.56;87.39;98566.27;105130;1257;97952;-74
2023/06/07 02:56:12;;;;;;;14.60;10.70;;;;;;;15.51;87.06;98568.71;105200;1254;97982;-74
2023/06/07 02:58:39;;;;;;;12.50;10.10;;;;;;;15.45;87.14;98569.17;105203;1256;97895;-75
2023/06/07 03:01:07;;;;;;;15.10;10.90;;;;;;;15.48;87.17;98569.80;104923;1266;340750;-72
2023/06/07 03:03:35;;;;;;;12.70;10.30;;;;;;;15.55;86.83;98568.29;105209;1254;99309;-71
2023/06/07 03:06:04;;;;;;;12.50;9.90;;;;;;;15.57;86.50;98570.02;105090;1271;97908;-77
2023/06/07 03:08:31;;;;;;;16.10;11.20;;;;;;;15.56;86.63;98569.58;105254;1269;97876;-74
2023/06/07 03:10:58;;;;;;;13.10;10.80;;;;;;;15.62;86.83;98570.52;105156;1257;98007;-74
2023/06/07 03:13:25;;;;;;;14.70;10.80;;;;;;;15.67;86.47;98570.77;105139;1261;97915;-71
2023/06/07 03:15:52;;;;;;;13.10;10.10;;;;;;;15.70;86.57;98570.92;105187;1256;97985;-71
2023/06/07 03:18:19;;;;;;;16.10;10.80;;;;;;;15.72;86.56;98571.92;105120;1254;97957;-73
2023/06/07 03:20:47;;;;;;;13.30;10.50;;;;;;;15.78;86.75;98573.36;105175;1256;97982;-68
2023/06/07 03:23:15;;;;;;;13.90;11.80;;;;;;;15.85;86.58;98567.08;105213;1257;98434;-67
2023/06/07 03:25:42;;;;;;;15.10;11.10;;;;;;;15.84;86.55;98571.62;105180;1257;99081;-67
2023/06/07 03:28:09;;;;;;;13.30;11.50;;;;;;;15.79;86.85;98577.18;105183;1257;98804;-76
2023/06/07 03:30:36;;;;;;;14.50;12.00;;;;;;;15.76;87.36;98580.09;105134;1257;98021;-78
2023/06/07 03:33:03;;;;;;;13.70;11.20;;;;;;;15.72;87.96;98580.15;105127;1256;97915;-76
2023/06/07 03:35:31;;;;;;;14.60;11.30;;;;;;;15.70;88.70;98582.77;105186;1266;97914;-77
2023/06/07 03:37:58;;;;;;;14.10;11.30;;;;;;;15.71;88.93;98583.35;105223;1257;98329;-70
2023/06/07 03:40:25;;;;;;;12.30;10.90;;;;;;;15.73;89.17;98585.30;105168;1257;97905;-67
2023/06/07 03:42:52;;;;;;;14.30;11.40;;;;;;;15.76;89.28;98581.69;105139;1254;98001;-73
2023/06/07 03:45:19;;;;;;;13.50;11.30;;;;;;;15.80;89.79;98585.58;105172;1269;99214;-74
2023/06/07 03:47:46;;;;;;;14.90;11.90;;;;;;;15.82;89.95;98584.20;105174;1267;98588;-74
2023/06/07 03:50:14;;;;;;;13.70;12.00;;;;;;;15.86;89.87;98581.95;105196;1267;98922;-70
2023/06/07 03:52:41;;;;;;;12.60;10.90;;;;;;;15.90;90.16;98582.31;105111;1257;97832;-77
2023/06/07 03:55:08;;;;;;;15.10;11.40;;;;;;;15.94;90.00;98584.23;105147;1256;98920;-77
2023/06/07 03:57:35;;;;;;;16.10;11.60;;;;;;;16.05;89.80;98584.48;105118;1253;97902;-78
2023/06/07 04:00:11;;;;;;;15.10;10.50;;;;;;;16.13;89.85;98584.14;105073;1257;99212;-77
2023/06/07 04:02:38;;;;;;;13.90;11.10;;;;;;;16.19;89.86;98582.83;105073;1269;98419;-78
2023/06/07 04:05:06;;;;;;;13.90;11.50;;;;;;;16.26;89.57;98582.52;105067;1267;97912;-73
2023/06/07 04:07:34;;;;;;;14.50;11.40;;;;;;;16.33;89.47;98581.73;105103;1276;99180;-78
2023/06/07 04:10:01;;;;;;;17.30;11.10;;;;;;;16.41;89.20;98581.09;105096;1259;99547;-79
2023/06/07 04:12:29;;;;;;;13.00;10.20;;;;;;;16.51;89.04;98581.40;105058;1257;99224;-79
2023/06/07 04:14:56;;;;;;;13.90;10.50;;;;;;;16.55;89.17;98579.52;105143;1269;97921;-80
2023/06/07 04:17:23;;;;;;;12.10;10.60;;;;;;;16.57;89.43;98578.16;105088;1256;98105;-79
2023/06/07 04:19:54;;;;;;;13.30;11.10;;;;;;;16.61;89.60;98574.77;105264;1257;99231;-66
2023/06/07 04:22:22;;;;;;;17.30;11.00;;;;;;;16.63;89.65;98579.19;107152;1256;97890;-67
2023/06/07 04:24:51;;;;;;;14.20;11.00;;;;;;;16.64;89.99;98576.91;105099;1254;112249;-66
2023/06/07 04:27:18;;;;;;;12.80;10.90;;;;;;;16.63;90.52;98579.43;105074;1256;99115;-67
2023/06/07 04:29:49;;;;;;;13.90;10.70;;;;;;;16.64;90.67;98580.72;105089;1274;97922;-67
2023/06/07 04:32:18;;;;;;;12.10;10.50;;;;;;;16.70;90.30;98582.61;105113;1254;98085;-66
2023/06/07 04:34:47;;;;;;;13.40;9.80;;;;;;;16.76;90.19;98585.13;105091;1257;97888;-67
2023/06/07 04:37:16;;;;;;;11.60;9.60;;;;;;;16.81;90.02;98585.08;105090;1257;111110;-72
2023/06/07 04:39:48;;;;;;;15.90;9.90;;;;;;;16.89;89.60;98589.30;105070;1257;98828;-67
2023/06/07 04:42:16;;;;;;;12.30;10.00;;;;;;;16.95;89.46;98586.21;105120;1257;108592;-71
2023/06/07 04:44:44;;;;;;;12.80;9.30;;;;;;;17.05;89.00;98586.04;105147;1267;97925;-66
2023/06/07 04:47:13;;;;;;;10.40;8.20;;;;;;;17.10;88.73;98587.14;105172;1258;99192;-66
2023/06/07 04:49:40;;;;;;;11.00;8.20;;;;;;;17.13;88.64;98587.36;105183;1256;112256;-67
2023/06/07 04:52:07;;;;;;;12.20;9.80;;;;;;;17.14;88.79;98587.30;105119;1276;97906;-73
2023/06/07 04:54:38;;;;;;;11.90;9.20;;;;;;;17.21;88.80;98590.88;105123;1269;97898;-68
2023/06/07 04:57:08;;;;;;;15.00;10.20;;;;;;;17.27;88.16;98592.28;104916;1257;98001;-66
2023/06/07 04:59:41;;;;;;;12.40;9.00;;;;;;;17.30;88.03;98594.95;105057;1256;98306;-71
2023/06/07 05:02:09;;;;;;;13.00;9.40;;;;;;;17.35;88.01;98599.66;105045;1266;111642;-66
2023/06/07 05:04:38;;;;;;;12.30;9.40;;;;;;;17.41;87.66;98595.44;105072;1254;98551;-65
2023/06/07 05:07:06;;;;;;;13.30;9.00;;;;;;;17.48;87.40;98595.48;105057;1256;107580;-68
2023/06/07 05:09:34;;;;;;;11.20;9.00;;;;;;;17.53;87.39;98596.17;105042;1257;97843;-68
2023/06/07 05:12:02;;;;;;;16.10;9.70;;;;;;;17.62;86.96;98593.48;105097;1254;97973;-66
2023/06/07 05:14:29;;;;;;;12.30;9.10;;;;;;;17.65;86.95;98595.23;105174;1256;111283;-68
2023/06/07 05:16:56;;;;;;;12.60;9.10;;;;;;;17.65;86.62;98596.00;105140;1256;99215;-65
2023/06/07 05:19:25;;;;;;;11.90;8.90;;;;;;;17.63;86.50;98597.94;105120;1270;97879;-66
2023/06/07 05:21:52;;;;;;;13.20;9.70;;;;;;;17.57;86.36;98597.27;105124;1256;99212;-66
2023/06/07 05:24:20;;;;;;;11.70;8.80;;;;;;;17.61;86.34;98595.29;105107;1268;97892;-65
2023/06/07 05:26:47;;;;;;;11.60;8.80;;;;;;;17.65;86.24;98597.99;105142;1256;98005;-68
2023/06/07 05:29:14;;;;;;;11.40;8.70;;;;;;;17.62;86.16;98593.03;104951;1267;97970;-65
2023/06/07 05:31:42;;;;;;;11.30;9.00;;;;;;;17.56;86.52;98595.27;105039;1256;97991;-65
2023/06/07 05:34:09;;;;;;;11.70;8.80;;;;;;;17.52;86.67;98599.39;105061;1261;97928;-65
2023/06/07 05:36:36;;;;;;;10.70;8.00;;;;;;;17.52;87.00;98599.15;104966;1257;99214;-65
2023/06/07 05:39:03;;;;;;;10.20;8.00;;;;;;;17.52;86.78;98602.46;104941;1258;97883;-65
2023/06/07 05:41:31;;;;;;;11.70;8.30;;;;;;;17.52;86.61;98600.89;105103;1258;97883;-68
2023/06/07 05:43:59;;;;;;;12.10;9.20;;;;;;;17.61;86.50;98598.94;105055;1256;97970;-66
2023/06/07 05:46:26;;;;;;;10.40;8.50;;;;;;;17.68;86.24;98601.46;105046;1256;98786;-81
2023/06/07 05:48:53;;;;;;;11.30;8.60;;;;;;;17.69;86.00;98600.45;105140;1254;98026;-74
2023/06/07 05:51:20;;;;;;;13.30;10.30;;;;;;;17.72;85.87;98602.80;105145;1260;97915;-75
2023/06/07 05:53:47;;;;;;;10.80;8.90;;;;;;;17.78;85.78;98604.59;105187;1254;97928;-68
2023/06/07 05:56:19;;;;;;;11.50;9.10;;;;;;;17.87;85.77;98607.41;105133;1257;97897;-69
2023/06/07 05:58:49;;;;;;;13.10;9.00;;;;;;;17.89;85.55;98603.34;105135;1254;97871;-71
2023/06/07 06:01:17;;;;;;;13.10;9.00;;;;;;;17.89;85.46;98600.53;105151;1257;99110;-69
2023/06/07 06:03:44;;;;;;;11.50;9.30;;;;;;;17.87;85.66;98596.46;105146;1257;97969;-67
2023/06/07 06:06:16;;;;;;;12.50;9.10;;;;;;;17.99;85.41;98603.67;105170;1257;98804;-72
2023/06/07 06:08:44;;;;;;;10.60;8.20;;;;;;;18.05;85.11;98601.25;105187;1257;107626;-65
2023/06/07 06:11:13;;;;;;;10.20;8.40;;;;;;;18.19;84.85;98604.16;105162;1257;97934;-68
2023/06/07 06:13:43;;;;;;;11.30;8.50;;;;;;;18.36;84.33;98608.36;105143;1257;98597;-69
2023/06/07 06:16:11;;;;;;;11.20;8.60;;;;;;;18.50;83.76;98611.39;105157;1264;111962;-74
2023/06/07 06:18:42;;;;;;;10.40;8.10;;;;;;;18.62;83.36;98607.10;105148;1257;98327;-73
2023/06/07 06:21:09;;;;;;;11.70;8.30;;;;;;;18.69;82.88;98609.19;105150;1256;107584;-69
2023/06/07 06:23:37;;;;;;;12.40;9.10;;;;;;;18.68;82.40;98606.30;105177;1256;99196;-66
2023/06/07 06:26:04;;;;;;;12.00;8.60;;;;;;;18.67;82.77;98604.08;105055;1259;97862;-67
2023/06/07 06:28:31;;;;;;;11.40;8.90;;;;;;;18.68;82.75;98608.14;105116;1256;97989;-68
2023/06/07 06:31:01;;;;;;;10.20;8.00;;;;;;;18.79;82.67;98604.38;105132;1257;99215;-66
2023/06/07 06:33:28;;;;;;;10.10;7.80;;;;;;;18.86;81.83;98602.48;105117;1258;109068;-69
2023/06/07 06:35:56;;;;;;;9.60;7.30;;;;;;;18.84;81.60;98603.42;104985;1265;97896;-71
2023/06/07 06:38:23;;;;;;;9.10;7.20;;;;;;;18.93;81.74;98607.20;105032;1257;99187;-66
2023/06/07 06:40:51;;;;;;;8.00;6.70;;;;;;;19.00;80.80;98607.47;105058;1256;97877;-66
2023/06/07 06:43:18;;;;;;;8.90;6.90;;;;;;;19.06;80.71;98608.60;105222;1256;99175;-66
2023/06/07 06:45:46;;;;;;;9.10;6.90;;;;;;;19.12;80.55;98612.84;105172;1258;97905;-74
2023/06/07 06:48:13;;;;;;;11.10;6.40;;;;;;;19.15;80.15;98614.33;104964;1256;99228;-69
2023/06/07 06:50:41;;;;;;;9.80;7.20;;;;;;;19.10;80.22;98611.93;105036;1257;99473;-68
2023/06/07 06:53:08;;;;;;;8.50;6.90;;;;;;;19.10;80.28;98615.36;104983;1269;97885;-68
2023/06/07 06:55:35;;;;;;;7.60;6.60;;;;;;;19.14;79.85;98617.95;105082;1257;99153;-67
2023/06/07 06:58:02;;;;;;;8.60;6.30;;;;;;;19.13;79.62;98614.20;105115;1269;97909;-69
2023/06/07 07:00:31;;;;;;;7.20;5.90;;;;;;;19.14;79.87;98612.00;105060;1257;99154;-69
2023/06/07 07:02:59;;;;;;;7.30;6.50;;;;;;;19.20;79.47;98617.34;105144;1257;99211;-65
2023/06/07 07:05:28;;;;;;;7.80;6.30;;;;;;;19.32;79.24;98617.81;105019;1260;111355;-67
2023/06/07 07:07:57;;;;;;;7.60;6.50;;;;;;;19.46;78.45;98613.81;105176;1257;98288;-70
2023/06/07 07:10:24;;;;;;;7.90;6.80;;;;;;;19.42;78.42;98612.66;105041;1276;108661;-77
2023/06/07 07:12:51;;;;;;;6.60;5.80;;;;;;;19.50;78.40;98612.84;105102;1267;97902;-72
2023/06/07 07:15:21;;;;;;;7.80;6.20;;;;;;;19.52;78.18;98613.03;105182;1257;97872;-71
2023/06/07 07:17:50;;;;;;;7.90;6.60;;;;;;;19.55;78.03;98611.79;105199;1259;97851;-70
2023/06/07 07:20:17;;;;;;;7.80;6.30;;;;;;;19.66;78.02;98616.64;105122;1256;98132;-67
2023/06/07 07:22:46;;;;;;;7.90;6.70;;;;;;;19.80;77.63;98616.64;105201;1257;108556;-74
2023/06/07 07:25:14;;;;;;;8.30;6.40;;;;;;;19.90;77.22;98614.95;105195;1256;97921;-67
2023/06/07 07:27:42;;;;;;;8.50;6.70;;;;;;;20.07;76.67;98618.77;105135;1257;97963;-77
2023/06/07 07:30:11;;;;;;;7.30;6.20;;;;;;;20.11;76.27;98618.16;105172;1257;110970;-73
2023/06/07 07:32:38;;;;;;;8.80;6.60;;;;;;;20.05;75.19;98613.95;105094;1260;99199;-66
2023/06/07 07:35:06;;;;;;;7.30;6.30;;;;;;;20.06;75.80;98620.56;105210;1276;107195;-74
2023/06/07 07:37:33;;;;;;;7.00;6.30;;;;;;;20.09;74.76;98616.63;105190;1260;97918;-71
2023/06/07 07:40:01;;;;;;;7.00;5.80;;;;;;;20.13;75.00;98620.80;105214;1257;97896;-70
2023/06/07 07:42:29;;;;;;;7.50;6.50;;;;;;;20.21;74.67;98621.45;105147;1257;111245;-66
2023/06/07 07:44:56;;;;;;;7.30;6.50;;;;;;;20.24;74.67;98623.55;105188;1258;99192;-66
2023/06/07 07:47:24;;;;;;;7.80;6.50;;;;;;;20.31;74.28;98621.00;105223;1267;98354;-70
2023/06/07 07:49:51;;;;;;;8.50;6.20;;;;;;;20.33;74.08;98624.12;105221;1257;99219;-66
2023/06/07 07:52:18;;;;;;;8.50;5.50;;;;;;;20.38;73.79;98625.54;105194;1256;97998;-67
2023/06/07 07:54:48;;;;;;;8.00;5.90;;;;;;;20.47;73.41;98628.73;105176;1258;111269;-66
2023/06/07 07:57:15;;;;;;;8.10;5.60;;;;;;;20.59;73.78;98627.96;105223;1268;97901;-66
2023/06/07 07:59:43;;;;;;;6.90;6.10;;;;;;;20.74;72.72;98629.31;105138;1268;97898;-66
2023/06/07 08:02:11;;;;;;;8.30;6.10;;;;;;;20.84;72.30;98629.02;105164;1257;97919;-66
2023/06/07 08:04:39;;;;;;;8.00;6.10;;;;;;;21.04;71.78;98628.40;105141;1254;97895;-65
2023/06/07 08:07:06;;;;;;;7.70;6.00;;;;;;;21.19;72.32;98628.03;105094;1256;98810;-67
2023/06/07 08:09:34;;;;;;;7.30;5.60;;;;;;;21.61;71.18;98626.07;105181;1266;99238;-68
2023/06/07 08:12:01;;;;;;;7.40;6.00;;;;;;;21.73;69.33;98625.89;105168;1268;98075;-66
2023/06/07 08:14:28;;;;;;;6.40;5.80;;;;;;;21.87;69.88;98622.63;105150;1257;97897;-66
2023/06/07 08:16:55;;;;;;;6.60;5.80;;;;;;;22.22;68.34;98624.52;105192;1254;97890;-66
2023/06/07 08:19:22;;;;;;;6.60;5.90;;;;;;;22.61;68.52;98626.70;105136;1257;99104;-66
2023/06/07 08:21:50;;;;;;;6.30;5.60;;;;;;;23.13;67.11;98630.40;105100;1257;98533;-66
2023/06/07 08:24:17;;;;;;;7.10;6.20;;;;;;;23.53;65.01;98625.59;105190;1268;97895;-66
2023/06/07 08:26:50;;;;;;;8.50;6.80;;;;;;;23.65;63.64;98626.12;105017;1266;97968;-66
2023/06/07 08:29:26;;;;;;;6.60;5.90;;;;;;;23.64;64.23;98624.68;104726;1261;99116;-69
2023/06/07 08:31:53;;;;;;;7.80;6.00;;;;;;;23.83;63.51;98627.26;104989;1256;99276;-68
2023/06/07 08:34:27;;;;;;;7.40;5.90;;;;;;;23.81;62.66;98631.18;105194;1257;97864;-70
2023/06/07 08:36:58;;;;;;;7.30;5.90;;;;;;;23.85;62.87;98627.57;105055;1256;108578;-68
2023/06/07 08:39:25;;;;;;;6.20;5.50;;;;;;;24.04;63.01;98625.66;105240;1267;99189;-68
2023/06/07 08:41:53;;;;;;;7.00;5.50;;;;;;;24.07;61.41;98626.13;105179;1254;97890;-70
2023/06/07 08:44:20;;;;;;;7.10;5.70;;;;;;;24.08;61.73;98626.11;105235;1256;112176;-68
2023/06/07 08:46:48;;;;;;;6.90;5.80;;;;;;;24.02;61.95;98629.98;105158;1256;97988;-67
2023/06/07 08:49:16;;;;;;;5.50;5.00;;;;;;;23.87;61.34;98628.61;105248;1257;107814;-67
2023/06/07 08:51:45;;;;;;;7.00;5.20;;;;;;;23.91;61.72;98623.55;105193;1260;99234;-71
2023/06/07 08:54:16;;;;;;;5.70;5.20;;;;;;;23.80;61.31;98626.23;105228;1256;99084;-72
2023/06/07 08:56:45;;;;;;;6.00;5.50;;;;;;;23.61;61.05;98624.38;106081;1257;112683;-67
2023/06/07 08:59:14;;;;;;;6.70;5.50;;;;;;;23.62;61.88;98619.73;105199;1257;99232;-67
2023/06/07 09:01:43;;;;;;;6.80;5.70;;;;;;;23.74;62.10;98622.16;105183;1266;108098;-68
2023/06/07 09:04:11;;;;;;;7.50;5.80;;;;;;;23.84;61.61;98625.73;105182;1264;98817;-71
2023/06/07 09:06:40;;;;;;;7.80;6.00;;;;;;;23.95;61.70;98624.98;105179;1258;97989;-69
2023/06/07 09:09:07;;;;;;;6.30;5.70;;;;;;;23.90;61.53;98623.95;105346;1254;111726;-68
2023/06/07 09:11:34;;;;;;;7.50;5.70;;;;;;;24.09;61.67;98623.01;105262;1267;97906;-68
2023/06/07 09:14:01;;;;;;;8.40;5.90;;;;;;;24.37;61.40;98625.45;105132;1256;97993;-67
2023/06/07 09:16:28;;;;;;;6.10;5.40;;;;;;;24.63;60.46;98623.02;105272;1256;97973;-70
2023/06/07 09:18:57;;;;;;;5.90;4.30;;;;;;;24.75;58.58;98620.00;105107;1254;97805;-68
2023/06/07 09:21:29;;;;;;;5.10;4.60;;;;;;;24.57;56.99;98621.00;105057;1257;99208;-67
2023/06/07 09:24:00;;;;;;;5.50;4.30;;;;;;;24.49;58.19;98614.88;105211;1260;99104;-68
2023/06/07 09:26:38;;;;;;;5.60;4.60;;;;;;;24.68;57.95;98619.09;105254;1257;108472;-70
2023/06/07 09:29:10;;;;;;;3.80;3.20;;;;;;;24.92;57.14;98617.64;105174;1269;99077;-68
2023/06/07 09:31:37;;;;;;;3.90;3.60;;;;;;;25.14;56.36;98617.54;105237;1256;97915;-67
2023/06/07 09:34:22;;;;;;;4.50;3.80;;;;;;;25.20;54.53;98613.64;105218;1256;112163;-68
2023/06/07 09:36:59;;;;;;;4.20;3.30;;;;;;;25.06;54.63;98606.56;105210;1257;99347;-67
2023/06/07 09:39:28;;;;;;;3.70;3.20;;;;;;;25.19;54.37;98603.88;105210;1257;108727;-68
2023/06/07 09:41:57;;;;;;;3.60;3.30;;;;;;;25.13;53.49;98604.09;105159;1257;97895;-68
2023/06/07 09:44:29;;;;;;;4.50;3.20;;;;;;;25.12;53.28;98602.10;105232;1257;97899;-67
2023/06/07 09:46:58;;;;;;;3.30;3.00;;;;;;;25.06;53.51;98604.47;105249;1255;110943;-67
2023/06/07 09:49:34;;;;;;;3.10;2.80;;;;;;;24.93;52.20;98596.73;105119;1257;99186;-66
2023/06/07 09:52:04;;;;;;;3.20;2.70;;;;;;;24.74;52.46;98598.39;105091;1260;107103;-65
